• Join FlightAware (Why Join?)
  • Login
  • US Flag 
12:34PM EDT


 

Airport Tracker/Info


-or-


 

Live Flight TrackerFlight Track Log ✈ SWA2966 ✈ 27-Sep-2013 ✈ KSAN - KSMF

Flight Track Log - Related Links

Times and Time Zones

All times are in EDT time to prevent confusion due to time zone crossing. See the SWA2966 flight status page for this flight to view local times or setup timezone preferences in your user account.

Time Position Orientation Groundspeed Altitude Reporting Facility
EDT Latitude Longitude Course Direction KTS MPH feet Rate Location/Type
10:42AM 32.7333 -117.2167 301° West 162 186 1,400  Level Southern California TRACON
10:43AM 32.7667 -117.2833 301° West 224 258 4,100 2,460 Climbing Southern California TRACON
10:44AM 32.8111 -117.3517 308° West 244 281 6,700 3,300 Climbing Los Angeles Center
10:45AM 32.8511 -117.4300 301° West 266 306 10,900 3,540 Climbing Los Angeles Center
10:46AM 32.9053 -117.5083 309° West 294 338 14,100 2,940 Climbing Los Angeles Center
10:47AM 32.9750 -117.5747 321° Northwest 313 360 17,000 2,820 Climbing Los Angeles Center
10:48AM 33.0436 -117.6531 316° Northwest 330 380 20,000 3,060 Climbing Los Angeles Center
10:49AM 33.1289 -117.7472 317° Northwest 344 396 23,300 2,520 Climbing Los Angeles Center
10:50AM 33.2042 -117.8239 320° Northwest 352 405 25,300 1,800 Climbing Los Angeles Center
10:51AM 33.2847 -117.9033 321° Northwest 367 422 27,100 1,620 Climbing Los Angeles Center
10:52AM 33.3703 -117.9847 322° Northwest 384 442 28,700 1,920 Climbing Los Angeles Center
10:53AM 33.4572 -118.0675 322° Northwest 396 456 31,100 2,100 Climbing Los Angeles Center
10:54AM 33.5428 -118.1411 324° Northwest 383 441 33,100 1,860 Climbing Los Angeles Center
10:55AM 33.6644 -118.1986 339° North 391 450 35,000 1,380 Climbing Los Angeles Center
10:56AM 33.7714 -118.2522 337° Northwest 398 458 36,000 480 Climbing Los Angeles Center
10:57AM 33.8769 -118.3039 338° Northwest 403 464 36,000  Level Los Angeles Center
10:58AM 33.9747 -118.3489 339° North 411 473 36,000  Level Los Angeles Center
10:59AM 34.1003 -118.4108 338° Northwest 409 471 36,000  Level Los Angeles Center
11:00AM 34.2053 -118.4628 338° Northwest 409 471 36,000  Level Los Angeles Center
11:01AM 34.3108 -118.5142 338° Northwest 410 472 36,000  Level Los Angeles Center
11:02AM 34.4153 -118.5656 338° Northwest 407 468 36,000  Level Los Angeles Center
11:03AM 34.5183 -118.6181 337° Northwest 403 464 36,000  Level Los Angeles Center
11:04AM 34.6219 -118.6672 339° North 401 461 36,000  Level Los Angeles Center
11:05AM 34.7442 -118.7283 338° Northwest 398 458 36,000  Level Los Angeles Center
11:06AM 34.8461 -118.7800 337° Northwest 398 458 36,000  Level Los Angeles Center
11:07AM 34.9483 -118.8286 339° North 395 455 36,000  Level Los Angeles Center
11:08AM 35.0481 -118.8789 338° Northwest 391 450 36,000  Level Los Angeles Center
11:10AM 35.1497 -118.9292 338° Northwest 394 453 36,000  Level Los Angeles Center
11:11AM 35.2517 -118.9792 338° Northwest 395 455 36,000  Level Los Angeles Center
11:12AM 35.3744 -119.0392 338° Northwest 396 456 36,000  Level Los Angeles Center
11:13AM 35.4750 -119.0903 338° Northwest 395 455 36,000  Level Los Angeles Center
11:14AM 35.5747 -119.1403 338° Northwest 391 450 36,000  Level Los Angeles Center
11:15AM 35.6747 -119.1922 337° Northwest 391 450 36,000  Level Los Angeles Center
11:16AM 35.7728 -119.2428 337° Northwest 387 445 36,000  Level Los Angeles Center
11:17AM 35.8933 -119.3039 338° Northwest 390 449 36,000  Level Los Angeles Center
11:18AM 35.9906 -119.3597 335° Northwest 387 445 36,000  Level Los Angeles Center
11:19AM 36.0831 -119.4250 330° Northwest 384 442 36,000  Level Los Angeles Center
11:20AM 36.1772 -119.4892 331° Northwest 386 444 36,000  Level Los Angeles Center
11:21AM 36.2714 -119.5539 331° Northwest 387 445 36,000  Level Los Angeles Center
11:22AM 36.3844 -119.6308 331° Northwest 387 445 36,000  Level Los Angeles Center
11:23AM 36.4778 -119.6956 331° Northwest 386 444 36,000  Level Los Angeles Center
11:24AM 36.5897 -119.7697 332° Northwest 388 447 36,000  Level Oakland Center
11:25AM 36.6833 -119.8336 331° Northwest 387 445 36,000 -300 Level Oakland Center
11:26AM 36.7772 -119.8986 331° Northwest 387 445 35,400 -1,440 Descending Oakland Center
11:27AM 36.8694 -119.9642 330° Northwest 383 441 33,100 -2,520 Descending Oakland Center
11:28AM 36.9617 -120.0286 331° Northwest 381 438 30,300 -1,920 Descending Oakland Center
11:29AM 37.0531 -120.0914 331° Northwest 375 432 29,200 -1,080 Descending Oakland Center
11:30AM 37.1528 -120.1608 331° Northwest 370 426 28,100 -1,200 Descending Oakland Center
11:31AM 37.2408 -120.2222 331° Northwest 363 418 26,800 -1,380 Descending Oakland Center
11:32AM 37.3272 -120.2844 330° Northwest 358 412 25,400 -1,380 Descending Oakland Center
11:33AM 37.4142 -120.3431 332° Northwest 355 409 24,000 -1,380 Descending Oakland Center
11:34AM 37.4917 -120.4175 323° Northwest 349 402 22,600 -1,500 Descending Oakland Center
11:36AM 37.5833 -120.5167 319° Northwest 347 399 20,800 -1,500 Descending Northern Cal TRACON
11:37AM 37.6667 -120.5833 328° Northwest 346 398 19,500 -1,320 Descending Northern Cal TRACON
11:37AM 37.7333 -120.6500 322° Northwest 341 392 18,300 -1,260 Descending Northern Cal TRACON
11:38AM 37.8033 -120.7308 318° Northwest 333 383 17,100 -1,140 Descending Oakland Center
11:39AM 37.8736 -120.8017 322° Northwest 326 375 16,000 -1,260 Descending Oakland Center
11:41AM 37.9414 -120.8736 320° Northwest 319 367 14,600 -1,440 Descending Oakland Center
11:42AM 37.9994 -120.9531 313° West 309 356 13,100 -1,440 Descending Oakland Center
11:43AM 38.0578 -121.0303 314° West 304 350 11,700 -1,320 Descending Oakland Center
11:44AM 38.1175 -121.1103 314° West 311 358 10,400 -1,200 Descending Oakland Center
11:44AM 38.1667 -121.1833 311° West 286 329 9,500 -1,380 Descending Northern Cal TRACON
11:45AM 38.2167 -121.2500 314° West 286 329 7,900 -1,500 Descending Northern Cal TRACON
11:46AM 38.2833 -121.3333 316° Northwest 282 325 6,600 -1,500 Descending Northern Cal TRACON
11:47AM 38.3333 -121.4000 314° West 280 322 5,100 -1,380 Descending Northern Cal TRACON
11:48AM 38.3833 -121.4667 314° West 265 305 4,000 -600 Descending Northern Cal TRACON
11:49AM 38.4333 -121.5333 314° West 254 292 3,900 -540 Descending Northern Cal TRACON
11:50AM 38.4833 -121.5500 345° North 240 276 3,000 -480 Descending Northern Cal TRACON
11:51AM 38.5333 -121.5667 345° North 209 241 3,000 -420 Level Northern Cal TRACON
11:52AM 38.5833 -121.5833 345° North 153 176 2,200 -900 Descending Northern Cal TRACON
11:53AM 38.6167 -121.6000 339° North 114 131 1,300 -720 Descending Northern Cal TRACON
11:54AM 38.6500 -121.6000 360° North 109 125 800 -600 Descending Northern Cal TRACON
11:55AM 38.6667 -121.6000 360° North 118 136 200 -600 Descending Northern Cal TRACON
11:58AM 38.6833 -121.5833 46° Northeast  Level FlightAware Approximate
12:05PM 38.6954 -121.5908 46° Northeast  Level Estimated